createdAt,value
2022-08-24T00:00:35.344Z,88.30
2022-08-24T00:03:02.699Z,89.10
2022-08-24T00:05:29.873Z,89.50
2022-08-24T00:07:56.911Z,89.80
2022-08-24T00:10:24.308Z,90.10
2022-08-24T00:12:51.147Z,89.70
2022-08-24T00:15:18.603Z,89.80
2022-08-24T00:17:45.489Z,89.30
2022-08-24T00:20:13.055Z,88.90
2022-08-24T00:22:41.085Z,89.00
2022-08-24T00:25:10.861Z,89.40
2022-08-24T00:27:39.219Z,89.20
2022-08-24T00:30:08.728Z,88.40
2022-08-24T00:32:37.698Z,89.30
2022-08-24T00:35:06.797Z,89.40
2022-08-24T00:37:34.289Z,89.60
2022-08-24T00:40:01.747Z,89.40
2022-08-24T00:42:28.900Z,89.70
2022-08-24T00:44:55.821Z,89.40
2022-08-24T00:47:31.670Z,89.30
2022-08-24T00:50:06.964Z,88.90
2022-08-24T00:52:48.202Z,88.80
2022-08-24T00:55:23.539Z,89.00
2022-08-24T00:57:55.555Z,88.60
2022-08-24T01:00:30.335Z,89.10
2022-08-24T01:03:01.558Z,89.40
2022-08-24T01:05:28.492Z,90.20
2022-08-24T01:07:55.286Z,90.80
2022-08-24T01:10:25.286Z,90.70
2022-08-24T01:12:59.648Z,90.90
2022-08-24T01:15:29.454Z,90.90
2022-08-24T01:18:15.880Z,90.90
2022-08-24T01:20:47.540Z,90.00
2022-08-24T01:23:42.775Z,90.20
2022-08-24T01:26:18.219Z,89.90
2022-08-24T01:28:49.392Z,89.80
2022-08-24T01:31:24.404Z,89.40
2022-08-24T01:33:52.769Z,89.30
2022-08-24T01:36:50.662Z,90.40
2022-08-24T01:39:22.080Z,89.60
2022-08-24T01:41:49.403Z,89.50
2022-08-24T01:44:16.292Z,89.50
2022-08-24T01:46:48.753Z,89.90
2022-08-24T01:49:17.070Z,89.90
2022-08-24T01:51:46.250Z,90.10
2022-08-24T01:54:14.690Z,90.30
2022-08-24T01:56:41.766Z,90.40
2022-08-24T01:59:09.180Z,90.00
2022-08-24T02:01:44.371Z,90.00
2022-08-24T02:04:11.406Z,89.80
2022-08-24T02:06:48.344Z,89.80
2022-08-24T02:09:15.495Z,89.10
2022-08-24T02:11:42.690Z,89.10
2022-08-24T02:14:09.506Z,88.80
2022-08-24T02:16:36.867Z,89.00
2022-08-24T02:19:03.686Z,89.60
2022-08-24T02:21:31.159Z,90.10
2022-08-24T02:23:57.963Z,89.50
2022-08-24T02:26:28.393Z,89.40
2022-08-24T02:28:59.294Z,89.70
2022-08-24T02:31:32.616Z,89.70
2022-08-24T02:33:59.775Z,89.60
2022-08-24T02:36:26.800Z,89.90
2022-08-24T02:38:55.683Z,89.60
2022-08-24T02:41:25.557Z,89.80
2022-08-24T02:43:53.627Z,89.90
2022-08-24T02:46:23.161Z,90.20
2022-08-24T02:48:54.940Z,90.40
2022-08-24T02:51:43.869Z,90.50
2022-08-24T02:54:12.841Z,90.50
2022-08-24T02:56:39.748Z,89.40
2022-08-24T02:59:07.300Z,89.40
2022-08-24T03:01:34.118Z,89.70
2022-08-24T03:04:01.022Z,89.90
2022-08-24T03:06:27.823Z,90.40
2022-08-24T03:08:56.547Z,90.00
2022-08-24T03:11:27.967Z,90.70
2022-08-24T03:13:57.486Z,91.20
2022-08-24T03:16:24.743Z,90.70
2022-08-24T03:18:51.524Z,90.70
2022-08-24T03:21:18.491Z,90.60
2022-08-24T03:23:45.251Z,90.40
2022-08-24T03:26:12.587Z,90.40
2022-08-24T03:28:39.702Z,90.00
2022-08-24T03:31:07.440Z,90.00
2022-08-24T03:33:34.504Z,89.70
2022-08-24T03:36:01.293Z,89.60
2022-08-24T03:38:28.379Z,90.10
2022-08-24T03:40:55.645Z,90.20
2022-08-24T03:43:40.995Z,90.40
2022-08-24T03:46:08.901Z,89.70
2022-08-24T03:48:36.254Z,90.50
2022-08-24T03:51:03.642Z,90.40
2022-08-24T03:53:30.614Z,90.30
2022-08-24T03:55:57.362Z,90.90
2022-08-24T03:58:24.291Z,90.90
2022-08-24T04:00:51.195Z,91.40
2022-08-24T04:03:17.987Z,91.80
2022-08-24T04:05:44.864Z,92.10
2022-08-24T04:08:11.820Z,91.80
2022-08-24T04:10:45.209Z,91.50
2022-08-24T04:13:12.175Z,90.80
2022-08-24T04:15:41.448Z,90.70
2022-08-24T04:18:08.957Z,91.10
2022-08-24T04:20:43.009Z,91.40
2022-08-24T04:23:13.020Z,92.00
2022-08-24T04:25:45.042Z,91.90
2022-08-24T04:28:13.810Z,91.90
2022-08-24T04:30:42.472Z,91.90
2022-08-24T04:33:11.890Z,91.80
2022-08-24T04:35:40.592Z,91.30
2022-08-24T04:38:08.882Z,91.10
2022-08-24T04:40:39.713Z,91.10
2022-08-24T04:43:07.026Z,90.80
2022-08-24T04:45:34.525Z,90.90
2022-08-24T04:48:01.475Z,91.00
2022-08-24T04:50:28.218Z,91.00
2022-08-24T04:52:54.969Z,91.20
2022-08-24T04:55:21.762Z,91.40
2022-08-24T04:57:48.567Z,91.50
2022-08-24T05:00:15.754Z,91.50
2022-08-24T05:02:45.073Z,91.20
2022-08-24T05:05:13.650Z,91.10
2022-08-24T05:07:40.547Z,91.00
2022-08-24T05:10:10.876Z,91.10
2022-08-24T05:12:38.818Z,91.50
2022-08-24T05:15:06.201Z,91.80
2022-08-24T05:17:32.966Z,91.80
2022-08-24T05:19:59.892Z,91.50
2022-08-24T05:22:27.308Z,91.20
2022-08-24T05:24:54.302Z,91.10
2022-08-24T05:27:21.369Z,90.70
2022-08-24T05:29:55.315Z,90.40
2022-08-24T05:32:22.284Z,90.30
2022-08-24T05:34:49.118Z,90.00
2022-08-24T05:37:15.882Z,90.20
2022-08-24T05:39:42.741Z,90.00
2022-08-24T05:42:09.880Z,89.90
2022-08-24T05:44:37.583Z,90.40
2022-08-24T05:47:04.560Z,90.40
2022-08-24T05:49:31.832Z,90.10
2022-08-24T05:51:58.890Z,90.70
2022-08-24T05:54:27.017Z,90.80
2022-08-24T05:56:54.956Z,91.30
2022-08-24T05:59:22.614Z,91.50
2022-08-24T06:01:49.765Z,91.50
2022-08-24T06:04:16.651Z,90.70
2022-08-24T06:06:43.560Z,91.40
2022-08-24T06:09:16.029Z,90.30
2022-08-24T06:11:43.074Z,90.30
2022-08-24T06:14:13.347Z,90.30
2022-08-24T06:16:43.766Z,90.60
2022-08-24T06:19:13.634Z,90.50
2022-08-24T06:21:41.751Z,90.50
2022-08-24T06:24:08.775Z,90.60
2022-08-24T06:26:54.505Z,90.30
2022-08-24T06:29:21.978Z,90.20
2022-08-24T06:31:54.325Z,90.30
2022-08-24T06:34:22.842Z,89.50
2022-08-24T06:36:49.866Z,89.80
2022-08-24T06:39:16.981Z,89.00
2022-08-24T06:41:43.951Z,89.40
2022-08-24T06:44:11.103Z,89.30
2022-08-24T06:46:39.948Z,88.40
2022-08-24T06:49:06.732Z,88.60
2022-08-24T06:51:33.676Z,88.20
2022-08-24T06:54:00.654Z,88.50
2022-08-24T06:56:27.467Z,88.60
2022-08-24T06:58:54.237Z,87.90
2022-08-24T07:01:26.823Z,87.60
2022-08-24T07:03:53.908Z,87.90
2022-08-24T07:06:21.340Z,88.10
2022-08-24T07:08:48.269Z,87.60
2022-08-24T07:11:17.950Z,86.70
2022-08-24T07:13:47.422Z,85.60
2022-08-24T07:16:34.968Z,85.30
2022-08-24T07:19:04.101Z,85.60
2022-08-24T07:21:32.331Z,85.10
2022-08-24T07:24:01.205Z,85.10
2022-08-24T07:26:31.447Z,85.30
2022-08-24T07:29:07.060Z,84.80
2022-08-24T07:31:36.642Z,85.30
2022-08-24T07:34:05.620Z,85.00
2022-08-24T07:36:33.474Z,84.50
2022-08-24T07:39:01.177Z,84.20
2022-08-24T07:42:02.502Z,82.70
2022-08-24T07:44:15.714Z,83.00
2022-08-24T07:46:43.092Z,83.40
2022-08-24T07:49:29.458Z,83.30
2022-08-24T07:51:58.161Z,83.50
2022-08-24T07:54:25.073Z,83.70
2022-08-24T07:56:52.559Z,83.30
2022-08-24T07:59:19.438Z,82.50
2022-08-24T08:01:46.821Z,81.20
2022-08-24T08:04:15.327Z,81.00
2022-08-24T08:06:43.177Z,80.60
2022-08-24T08:09:10.122Z,79.80
2022-08-24T08:11:36.986Z,79.60
2022-08-24T08:14:03.799Z,79.40
2022-08-24T08:16:30.944Z,79.20
2022-08-24T08:19:12.993Z,77.80
2022-08-24T08:22:04.001Z,77.30
2022-08-24T08:24:30.909Z,76.50
2022-08-24T08:26:57.959Z,76.30
2022-08-24T08:29:25.616Z,75.70
2022-08-24T08:31:53.063Z,75.50
2022-08-24T08:34:20.174Z,74.30
2022-08-24T08:36:47.903Z,74.60
2022-08-24T08:39:17.316Z,75.60
2022-08-24T08:42:18.039Z,74.10
2022-08-24T08:44:50.519Z,75.30
2022-08-24T08:47:43.763Z,73.50
2022-08-24T08:50:21.821Z,74.40
2022-08-24T08:53:13.798Z,74.40
2022-08-24T08:55:45.350Z,74.60
2022-08-24T08:58:33.766Z,74.30
2022-08-24T09:01:15.798Z,74.20
2022-08-24T09:04:04.545Z,74.60
2022-08-24T09:06:44.694Z,73.80
2022-08-24T09:09:30.776Z,72.70
2022-08-24T09:12:32.783Z,72.10
2022-08-24T09:15:24.030Z,72.20
2022-08-24T09:18:12.210Z,73.20
2022-08-24T09:20:56.956Z,72.60
2022-08-24T09:23:50.122Z,71.20
2022-08-24T09:26:33.007Z,71.90
2022-08-24T09:29:23.260Z,71.60
2022-08-24T09:32:28.622Z,70.60
2022-08-24T09:35:05.442Z,71.10
2022-08-24T09:37:50.364Z,68.80
2022-08-24T09:40:43.535Z,70.50
2022-08-24T09:43:35.059Z,68.90
2022-08-24T09:46:09.985Z,69.30
2022-08-24T09:49:08.381Z,69.50
2022-08-24T09:51:49.964Z,68.40
2022-08-24T09:55:00.690Z,68.20
2022-08-24T09:58:01.916Z,67.50
2022-08-24T10:00:44.714Z,68.60
2022-08-24T10:03:33.903Z,67.30
2022-08-24T10:06:10.984Z,67.20
2022-08-24T10:08:43.230Z,66.40
2022-08-24T10:11:23.094Z,66.30
2022-08-24T10:14:00.925Z,66.70
2022-08-24T10:16:52.515Z,66.70
2022-08-24T10:19:44.734Z,67.10
2022-08-24T10:22:41.768Z,67.70
2022-08-24T10:25:11.532Z,67.50
2022-08-24T10:28:01.480Z,67.10
2022-08-24T10:30:52.620Z,65.30
2022-08-24T10:33:26.476Z,65.90
2022-08-24T10:36:05.310Z,65.00
2022-08-24T10:39:07.318Z,65.10
2022-08-24T10:41:58.181Z,63.00
2022-08-24T10:44:47.831Z,63.60
2022-08-24T10:47:30.922Z,63.90
2022-08-24T10:50:30.982Z,61.40
2022-08-24T10:53:05.447Z,60.60
2022-08-24T10:55:34.602Z,61.70
2022-08-24T10:58:28.704Z,59.60
2022-08-24T11:00:56.098Z,60.90
2022-08-24T11:03:28.001Z,62.30
2022-08-24T11:05:56.749Z,62.00
2022-08-24T11:08:28.081Z,63.00
2022-08-24T11:11:08.783Z,64.20
2022-08-24T11:13:38.346Z,63.60
2022-08-24T11:16:06.555Z,64.30
2022-08-24T11:18:52.366Z,65.30
2022-08-24T11:21:55.459Z,63.60
2022-08-24T11:24:37.681Z,63.40
2022-08-24T11:27:32.553Z,63.50
2022-08-24T11:30:03.960Z,62.40
2022-08-24T11:32:44.677Z,61.90
2022-08-24T11:35:33.305Z,61.40
2022-08-24T11:38:07.498Z,61.20
2022-08-24T11:40:41.738Z,59.50
2022-08-24T11:43:15.880Z,58.70
2022-08-24T11:45:52.175Z,58.40
2022-08-24T11:48:31.054Z,59.60
2022-08-24T11:51:14.683Z,58.40
2022-08-24T12:06:31.477Z,54.00
2022-08-24T12:09:09.360Z,53.60
2022-08-24T12:11:44.857Z,53.30
2022-08-24T12:14:44.887Z,54.90
2022-08-24T12:17:35.664Z,54.80
2022-08-24T12:20:09.790Z,55.80
2022-08-24T12:22:39.721Z,54.10
2022-08-24T12:25:28.287Z,54.60
2022-08-24T12:27:55.592Z,55.90
2022-08-24T12:30:23.178Z,54.60
2022-08-24T12:33:00.611Z,54.40
2022-08-24T12:35:36.783Z,53.90
2022-08-24T12:38:28.613Z,53.40
2022-08-24T12:41:14.619Z,55.50
2022-08-24T12:44:09.032Z,54.90
2022-08-24T12:46:37.221Z,55.30
2022-08-24T12:49:19.647Z,57.80
2022-08-24T12:52:21.074Z,55.90
2022-08-24T12:55:17.011Z,56.30
2022-08-24T12:58:30.398Z,55.40
2022-08-24T13:00:51.975Z,56.20
2022-08-24T13:03:50.952Z,54.20
2022-08-24T13:06:28.771Z,54.40
2022-08-24T13:09:08.358Z,52.10
2022-08-24T13:11:37.896Z,53.00
2022-08-24T13:14:21.125Z,53.50
2022-08-24T13:16:55.909Z,54.40
2022-08-24T13:19:39.986Z,55.50
2022-08-24T13:22:09.731Z,56.70
2022-08-24T13:24:37.567Z,56.10
2022-08-24T13:27:27.368Z,55.90
2022-08-24T13:30:18.251Z,53.00
2022-08-24T13:32:55.424Z,52.60
2022-08-24T13:35:57.535Z,52.90
2022-08-24T13:38:24.256Z,53.40
2022-08-24T13:40:58.643Z,53.00
2022-08-24T13:43:47.975Z,53.50
2022-08-24T13:46:19.860Z,54.10
2022-08-24T13:48:58.614Z,54.10
2022-08-24T13:51:34.186Z,55.20
2022-08-24T13:54:32.019Z,56.50
2022-08-24T13:57:18.549Z,56.90
2022-08-24T14:00:05.599Z,57.20
2022-08-24T14:02:50.512Z,57.50
2022-08-24T14:05:54.246Z,57.80
2022-08-24T14:08:49.949Z,57.90
2022-08-24T14:11:25.935Z,57.50
2022-08-24T14:14:40.534Z,57.90
2022-08-24T14:17:35.710Z,57.80
2022-08-24T14:20:24.512Z,57.00
2022-08-24T14:23:16.452Z,55.90
2022-08-24T14:25:49.149Z,56.40
2022-08-24T14:28:39.388Z,56.40
2022-08-24T14:31:28.103Z,56.00
2022-08-24T14:34:16.003Z,55.20
2022-08-24T14:36:46.688Z,55.80
2022-08-24T14:39:35.971Z,55.50
2022-08-24T14:42:17.644Z,55.30
2022-08-24T14:45:03.102Z,54.90
2022-08-24T14:48:01.761Z,55.50
2022-08-24T14:50:54.836Z,53.70
2022-08-24T14:54:15.610Z,54.50
2022-08-24T14:57:03.598Z,53.90
2022-08-24T14:59:53.111Z,52.10
2022-08-24T15:02:45.158Z,49.70
2022-08-24T15:05:38.738Z,47.40
2022-08-24T15:08:15.937Z,48.20
2022-08-24T15:11:09.501Z,50.20
2022-08-24T15:14:08.539Z,51.40
2022-08-24T15:16:50.717Z,52.70
2022-08-24T15:19:23.083Z,52.90
2022-08-24T15:22:02.157Z,52.90
2022-08-24T15:24:44.923Z,53.00
2022-08-24T15:27:47.791Z,53.40
2022-08-24T15:30:27.359Z,54.50
2022-08-24T15:33:01.223Z,54.60
2022-08-24T15:35:32.147Z,54.50
2022-08-24T15:38:16.574Z,54.00
2022-08-24T15:40:46.051Z,54.80
2022-08-24T15:43:13.598Z,53.20
2022-08-24T15:45:51.222Z,53.40
2022-08-24T15:48:24.501Z,54.60
2022-08-24T15:50:52.901Z,54.60
2022-08-24T15:53:29.458Z,54.40
2022-08-24T15:55:56.852Z,55.20
2022-08-24T15:58:37.158Z,53.00
2022-08-24T16:01:28.224Z,52.50
2022-08-24T16:03:56.711Z,52.50
2022-08-24T16:06:35.523Z,51.30
2022-08-24T16:09:32.678Z,51.90
2022-08-24T16:12:12.701Z,51.90
2022-08-24T16:14:52.504Z,52.00
2022-08-24T16:17:34.663Z,52.30
2022-08-24T16:20:24.129Z,53.50
2022-08-24T16:22:58.454Z,54.30
2022-08-24T16:25:27.379Z,54.30
2022-08-24T16:28:00.489Z,53.20
2022-08-24T16:30:43.503Z,51.10
2022-08-24T16:33:11.571Z,50.10
2022-08-24T16:35:38.795Z,50.70
2022-08-24T16:38:05.856Z,51.30
2022-08-24T16:40:34.411Z,51.20
2022-08-24T16:43:01.323Z,52.50
2022-08-24T16:45:28.879Z,53.70
2022-08-24T16:47:57.731Z,54.70
2022-08-24T16:50:27.164Z,56.00
2022-08-24T16:52:54.566Z,58.10
2022-08-24T16:55:21.963Z,59.30
2022-08-24T16:57:49.823Z,60.70
2022-08-24T17:00:19.189Z,61.30
2022-08-24T17:02:48.058Z,62.20
2022-08-24T17:05:17.825Z,62.60
2022-08-24T17:07:45.103Z,63.20
2022-08-24T17:10:15.434Z,63.00
2022-08-24T17:12:42.734Z,63.60
2022-08-24T17:15:11.855Z,63.80
2022-08-24T17:17:40.435Z,64.20
2022-08-24T17:20:11.829Z,64.50
2022-08-24T17:22:38.863Z,64.10
2022-08-24T17:25:05.778Z,64.70
2022-08-24T17:27:34.020Z,64.80
2022-08-24T17:30:02.705Z,65.00
2022-08-24T17:32:29.641Z,65.30
2022-08-24T17:34:57.016Z,65.30
2022-08-24T17:37:24.581Z,66.00
2022-08-24T17:39:57.632Z,65.60
2022-08-24T17:45:12.976Z,65.70
2022-08-24T17:47:41.355Z,66.00
2022-08-24T17:50:12.768Z,66.00
2022-08-24T17:52:40.462Z,66.20
2022-08-24T17:55:09.506Z,66.50
2022-08-24T17:57:37.356Z,66.80
2022-08-24T18:00:06.593Z,67.70
2022-08-24T18:02:34.895Z,67.70
2022-08-24T18:05:02.603Z,68.90
2022-08-24T18:07:49.433Z,69.50
2022-08-24T18:10:21.079Z,69.60
2022-08-24T18:12:48.128Z,70.00
2022-08-24T18:15:14.973Z,70.40
2022-08-24T18:17:47.604Z,70.80
2022-08-24T18:20:16.591Z,71.40
2022-08-24T18:22:47.550Z,71.60
2022-08-24T18:25:22.869Z,72.30
2022-08-24T18:27:52.423Z,73.40
2022-08-24T18:30:30.618Z,73.90
2022-08-24T18:33:01.643Z,74.70
2022-08-24T18:35:30.658Z,75.40
2022-08-24T18:37:57.476Z,75.70
2022-08-24T18:40:26.765Z,76.40
2022-08-24T18:43:01.683Z,76.60
2022-08-24T18:45:31.452Z,77.10
2022-08-24T18:47:58.815Z,77.10
2022-08-24T18:50:28.831Z,77.80
2022-08-24T18:52:57.478Z,78.10
2022-08-24T18:55:25.426Z,78.40
2022-08-24T18:57:52.370Z,78.70
2022-08-24T19:00:19.538Z,78.70
2022-08-24T19:02:47.340Z,79.00
2022-08-24T19:05:21.271Z,79.20
2022-08-24T19:07:51.275Z,80.40
2022-08-24T19:10:24.158Z,81.00
2022-08-24T19:13:00.052Z,81.50
2022-08-24T19:15:34.664Z,82.00
2022-08-24T19:18:09.620Z,82.30
2022-08-24T19:20:39.088Z,82.50
2022-08-24T19:23:13.021Z,82.60
2022-08-24T19:25:44.365Z,82.50
2022-08-24T19:28:12.057Z,83.10
2022-08-24T19:30:39.470Z,83.10
2022-08-24T19:33:10.486Z,83.40
2022-08-24T19:35:41.085Z,83.30
2022-08-24T19:38:08.051Z,83.60
2022-08-24T19:40:34.930Z,83.50
2022-08-24T19:43:02.961Z,83.90
2022-08-24T19:45:49.436Z,83.40
2022-08-24T19:48:17.067Z,83.50
2022-08-24T19:50:44.157Z,84.40
2022-08-24T19:53:10.975Z,84.80
2022-08-24T19:55:38.267Z,85.00
2022-08-24T19:58:30.125Z,85.60
2022-08-24T20:01:02.684Z,85.20
2022-08-24T20:03:29.665Z,84.70
2022-08-24T20:05:57.148Z,85.10
2022-08-24T20:08:23.909Z,85.20
2022-08-24T20:10:52.936Z,85.10
2022-08-24T20:13:19.894Z,85.40
2022-08-24T20:15:46.976Z,85.30
2022-08-24T20:18:14.504Z,85.60
2022-08-24T20:20:41.283Z,85.70
2022-08-24T20:23:08.674Z,85.50
2022-08-24T20:25:37.194Z,85.20
2022-08-24T20:28:28.270Z,85.40
2022-08-24T20:30:53.208Z,85.20
2022-08-24T20:33:27.672Z,85.50
2022-08-24T20:35:56.298Z,85.50
2022-08-24T20:38:23.880Z,85.90
2022-08-24T20:40:52.023Z,86.20
2022-08-24T20:43:19.672Z,86.30
2022-08-24T20:45:49.082Z,86.50
2022-08-24T20:48:17.375Z,86.70
2022-08-24T20:50:44.211Z,86.50
2022-08-24T20:53:11.928Z,86.00
2022-08-24T20:55:40.493Z,86.50
2022-08-24T20:58:07.959Z,87.00
2022-08-24T21:00:34.943Z,87.30
2022-08-24T21:03:01.800Z,87.70
2022-08-24T21:05:28.770Z,87.30
2022-08-24T21:07:57.780Z,87.40
2022-08-24T21:10:26.828Z,87.60
2022-08-24T21:12:54.222Z,87.50
2022-08-24T21:15:22.418Z,87.40
2022-08-24T21:17:50.273Z,87.50
2022-08-24T21:20:20.157Z,87.40
2022-08-24T21:22:47.055Z,87.30
2022-08-24T21:25:14.674Z,87.40
2022-08-24T21:27:44.217Z,87.40
2022-08-24T21:30:14.208Z,87.60
2022-08-24T21:33:00.275Z,87.50
2022-08-24T21:35:27.195Z,87.80
2022-08-24T21:37:54.335Z,87.60
2022-08-24T21:40:21.947Z,87.70
2022-08-24T21:42:49.354Z,88.00
2022-08-24T21:45:17.135Z,88.80
2022-08-24T21:47:44.715Z,88.80
2022-08-24T21:50:12.116Z,89.10
2022-08-24T21:52:38.943Z,88.40
2022-08-24T21:55:09.635Z,88.20
2022-08-24T21:57:40.344Z,87.50
2022-08-24T22:00:13.519Z,87.10
2022-08-24T22:02:40.863Z,87.20
2022-08-24T22:05:09.354Z,88.10
2022-08-24T22:07:36.657Z,88.60
2022-08-24T22:10:05.096Z,88.60
2022-08-24T22:12:32.237Z,88.70
2022-08-24T22:14:59.111Z,88.50
2022-08-24T22:17:26.277Z,89.50
2022-08-24T22:19:53.476Z,89.50
2022-08-24T22:22:20.699Z,89.20
2022-08-24T22:24:47.804Z,89.30
2022-08-24T22:27:15.406Z,89.20
2022-08-24T22:29:42.260Z,89.70
2022-08-24T22:32:09.055Z,90.20
2022-08-24T22:34:39.043Z,90.60
2022-08-24T22:37:06.201Z,90.50
2022-08-24T22:39:33.337Z,90.20
2022-08-24T22:42:00.120Z,90.10
2022-08-24T22:44:27.735Z,90.00
2022-08-24T22:47:00.391Z,90.00
2022-08-24T22:49:30.243Z,89.70
2022-08-24T22:51:57.626Z,89.70
2022-08-24T22:54:25.500Z,89.10
2022-08-24T22:56:54.098Z,89.30
2022-08-24T22:59:22.350Z,89.30
2022-08-24T23:01:51.616Z,89.10
2022-08-24T23:04:23.352Z,89.00
2022-08-24T23:06:50.940Z,89.30
2022-08-24T23:09:18.779Z,89.50
2022-08-24T23:11:46.301Z,90.00
2022-08-24T23:14:14.333Z,90.20
2022-08-24T23:16:47.860Z,90.20
2022-08-24T23:19:39.451Z,90.10
2022-08-24T23:22:08.571Z,90.50
2022-08-24T23:24:35.907Z,90.60
2022-08-24T23:27:04.031Z,90.10
2022-08-24T23:29:31.088Z,89.80
2022-08-24T23:31:58.073Z,89.70
2022-08-24T23:34:24.850Z,90.30
2022-08-24T23:36:51.861Z,90.60
2022-08-24T23:39:21.068Z,90.30
2022-08-24T23:41:49.172Z,89.90
2022-08-24T23:44:20.523Z,89.80
2022-08-24T23:46:47.754Z,89.80
2022-08-24T23:49:17.183Z,89.30
2022-08-24T23:51:44.016Z,90.20
2022-08-24T23:54:10.978Z,90.60
2022-08-24T23:56:42.050Z,90.90
2022-08-24T23:59:15.318Z,90.80
